Time;durP1;ratioP1;P1;durP2;ratioP2;P2;SDS_P1;SDS_P2;PMS_P1;PMS_P2;Temp;Humidity;BMP_temperature;BMP_pressure;BME280_temperature;BME280_humidity;BME280_pressure;Samples;Min_cycle;Max_cycle;Signal;HPM_P1;HPM_P2
2022/12/13 00:00:18;;;;;;;27.30;13.30;;;-2.80;99.90;;;;;;5051405;28;20541;-59
2022/12/13 00:02:45;;;;;;;23.50;12.07;;;-2.80;99.90;;;;;;5051465;28;20456;-59
2022/12/13 00:05:12;;;;;;;29.03;14.03;;;-2.80;99.90;;;;;;5051615;28;20448;-60
2022/12/13 00:07:39;;;;;;;26.30;12.27;;;-2.90;99.90;;;;;;5059278;28;20532;-60
2022/12/13 00:10:07;;;;;;;26.73;12.37;;;-2.80;99.90;;;;;;5063955;28;20447;-57
2022/12/13 00:12:35;;;;;;;23.70;12.40;;;-2.80;99.90;;;;;;5071480;28;20573;-60
2022/12/13 00:15:01;;;;;;;23.63;12.37;;;-2.80;99.90;;;;;;5071414;28;20454;-60
2022/12/13 00:17:28;;;;;;;29.57;12.90;;;-2.80;99.90;;;;;;5071375;28;20478;-59
2022/12/13 00:19:55;;;;;;;30.07;13.33;;;-2.70;99.90;;;;;;5071473;28;20482;-58
2022/12/13 00:22:21;;;;;;;26.03;13.53;;;-2.80;99.90;;;;;;5071105;28;20976;-59
2022/12/13 00:24:48;;;;;;;28.77;14.03;;;-2.80;99.90;;;;;;5071415;28;20451;-60
2022/12/13 00:27:14;;;;;;;29.17;12.93;;;-2.80;99.90;;;;;;5071257;28;20498;-59
2022/12/13 00:29:43;;;;;;;26.43;13.53;;;-2.80;99.90;;;;;;5070988;28;20516;-59
2022/12/13 00:32:09;;;;;;;24.97;12.10;;;-2.80;99.90;;;;;;5071431;28;20815;-59
2022/12/13 00:34:36;;;;;;;27.63;12.67;;;-2.80;99.90;;;;;;5071287;28;20482;-58
2022/12/13 00:37:02;;;;;;;27.53;12.60;;;-2.80;99.90;;;;;;5067000;28;20476;-59
2022/12/13 00:39:29;;;;;;;25.03;12.57;;;-2.80;99.90;;;;;;5062860;28;20484;-59
2022/12/13 00:41:56;;;;;;;26.70;12.83;;;-2.80;99.90;;;;;;5054941;28;20861;-60
2022/12/13 00:44:23;;;;;;;29.60;14.03;;;-2.80;99.90;;;;;;5054818;28;20451;-59
2022/12/13 00:46:52;;;;;;;25.43;12.47;;;-2.80;99.90;;;;;;5055005;28;20472;-59
2022/12/13 00:49:18;;;;;;;26.50;12.97;;;-2.90;99.90;;;;;;5054875;28;20573;-60
2022/12/13 00:51:47;;;;;;;26.87;12.33;;;-2.90;99.90;;;;;;5054623;28;20452;-57
2022/12/13 00:54:13;;;;;;;23.53;12.83;;;-2.90;99.90;;;;;;5054817;28;20474;-58
2022/12/13 00:56:40;;;;;;;24.33;12.60;;;-2.90;99.90;;;;;;5054201;28;20490;-60
2022/12/13 00:59:07;;;;;;;24.70;12.50;;;-2.90;99.90;;;;;;5054488;28;20853;-60
2022/12/13 01:01:36;;;;;;;31.13;12.70;;;-2.90;99.90;;;;;;5054636;28;20455;-59
2022/12/13 01:04:06;;;;;;;25.23;12.40;;;-2.90;99.90;;;;;;5054763;28;20448;-58
2022/12/13 01:06:36;;;;;;;23.57;12.80;;;-2.90;99.90;;;;;;5054187;28;20464;-57
2022/12/13 01:09:04;;;;;;;24.73;12.47;;;-2.90;99.90;;;;;;5066532;28;20439;-57
2022/12/13 01:11:31;;;;;;;26.47;13.53;;;-2.80;99.90;;;;;;5074355;28;20454;-60
2022/12/13 01:13:58;;;;;;;24.93;12.97;;;-2.90;99.90;;;;;;5074326;28;20447;-60
2022/12/13 01:16:24;;;;;;;22.70;11.23;;;-2.80;99.90;;;;;;5074179;28;20497;-60
2022/12/13 01:18:51;;;;;;;27.13;13.27;;;-2.90;99.90;;;;;;5074306;28;20451;-60
2022/12/13 01:21:20;;;;;;;26.63;13.70;;;-3.00;99.90;;;;;;5074091;28;20891;-60
2022/12/13 01:23:46;;;;;;;26.37;12.20;;;-3.10;99.90;;;;;;5063757;28;20458;-60
2022/12/13 01:26:16;;;;;;;26.43;13.53;;;-3.10;99.90;;;;;;5062007;28;20472;-59
2022/12/13 01:28:43;;;;;;;25.87;13.17;;;-3.00;99.90;;;;;;5063461;28;20508;-60
2022/12/13 01:31:12;;;;;;;27.40;12.60;;;-3.00;99.90;;;;;;5065696;28;21176;-60
2022/12/13 01:33:39;;;;;;;27.60;12.60;;;-3.00;99.90;;;;;;5073931;28;20829;-60
2022/12/13 01:36:10;;;;;;;26.03;13.23;;;-3.00;99.90;;;;;;5073656;28;20509;-58
2022/12/13 01:38:38;;;;;;;22.57;12.57;;;-3.00;99.90;;;;;;5065375;28;20451;-60
2022/12/13 01:41:05;;;;;;;25.03;12.53;;;-3.10;99.90;;;;;;5073953;28;20487;-59
2022/12/13 01:43:53;;;;;;;28.57;13.23;;;-3.10;99.90;;;;;;5073523;28;20461;-60
2022/12/13 01:46:20;;;;;;;24.13;13.37;;;-3.10;99.90;;;;;;5073614;28;20459;-60
2022/12/13 01:48:51;;;;;;;23.80;12.30;;;-3.10;99.90;;;;;;5073537;28;20494;-59
2022/12/13 01:51:21;;;;;;;27.33;13.10;;;-3.10;99.90;;;;;;5073133;28;20439;-60
2022/12/13 01:53:51;;;;;;;26.53;12.97;;;-3.10;99.90;;;;;;5073652;28;20857;-59
2022/12/13 01:56:20;;;;;;;23.53;11.80;;;-3.10;99.90;;;;;;5073413;28;20508;-59
2022/12/13 01:58:48;;;;;;;23.57;12.57;;;-3.20;99.90;;;;;;5073518;28;20855;-60
2022/12/13 02:01:16;;;;;;;28.50;12.43;;;-3.20;99.90;;;;;;5073348;28;20486;-57
2022/12/13 02:03:44;;;;;;;23.23;12.00;;;-3.10;99.90;;;;;;5073553;28;20447;-60
2022/12/13 02:06:16;;;;;;;23.40;12.10;;;-3.10;99.90;;;;;;5073230;28;20451;-60
2022/12/13 02:08:45;;;;;;;26.63;12.93;;;-3.20;99.90;;;;;;5063887;28;20505;-60
2022/12/13 02:11:15;;;;;;;27.53;13.13;;;-3.20;99.90;;;;;;5053400;28;20448;-60
2022/12/13 02:13:41;;;;;;;21.93;11.97;;;-3.20;99.90;;;;;;5052913;28;20493;-60
2022/12/13 02:16:18;;;;;;;25.93;12.73;;;-3.20;99.10;;;;;;5052869;28;20451;-60
2022/12/13 02:18:57;;;;;;;23.70;12.50;;;-3.30;98.00;;;;;;5053256;28;20456;-60
2022/12/13 02:21:31;;;;;;;26.07;11.77;;;-3.30;97.20;;;;;;5052892;28;21055;-59
2022/12/13 02:24:46;;;;;;;23.43;12.30;;;-3.20;97.10;;;;;;5053113;28;20497;-59
2022/12/13 02:27:41;;;;;;;23.63;11.13;;;-3.20;95.20;;;;;;5052769;28;21012;-60
2022/12/13 02:30:21;;;;;;;22.67;11.90;;;-3.20;93.80;;;;;;5052917;28;20447;-59
2022/12/13 02:33:08;;;;;;;23.03;12.27;;;-3.30;92.80;;;;;;5052893;28;20443;-60
2022/12/13 02:35:41;;;;;;;25.07;11.67;;;-3.30;91.90;;;;;;5053041;28;20443;-60
2022/12/13 02:38:13;;;;;;;27.73;12.53;;;-3.40;90.60;;;;;;5060715;28;20986;-59
2022/12/13 02:40:45;;;;;;;25.23;11.60;;;-3.40;88.40;;;;;;5069794;28;20889;-60
2022/12/13 02:43:18;;;;;;;23.47;11.80;;;-3.50;87.30;;;;;;5072601;28;20446;-60
2022/12/13 02:45:48;;;;;;;29.47;12.37;;;-3.50;88.10;;;;;;5072674;28;20454;-60
2022/12/13 02:48:18;;;;;;;23.67;12.07;;;-3.50;88.70;;;;;;5072481;28;20479;-60
2022/12/13 02:50:46;;;;;;;22.97;13.40;;;-3.60;88.80;;;;;;5072300;28;20451;-60
2022/12/13 02:53:15;;;;;;;23.87;12.90;;;-3.60;90.00;;;;;;5072381;28;20454;-60
2022/12/13 02:55:42;;;;;;;27.17;12.90;;;-3.60;90.40;;;;;;5072276;28;20452;-60
2022/12/13 02:58:12;;;;;;;27.37;13.10;;;-3.60;90.90;;;;;;5072363;28;20471;-59
2022/12/13 03:00:51;;;;;;;24.10;12.77;;;-3.60;91.90;;;;;;5071879;28;20485;-57
2022/12/13 03:03:29;;;;;;;25.10;12.43;;;-3.60;91.40;;;;;;5071980;28;20454;-60
2022/12/13 03:09:06;;;;;;;24.70;11.97;;;-3.60;89.70;;;;;;5061461;28;20430;-60
2022/12/13 03:14:37;;;;;;;24.10;12.20;;;-3.70;87.00;;;;;;5052161;28;20450;-60
2022/12/13 03:17:07;;;;;;;23.43;12.10;;;-3.70;87.30;;;;;;5051997;28;20472;-60
2022/12/13 03:19:34;;;;;;;28.30;12.07;;;-3.70;85.90;;;;;;5052023;28;20953;-60
2022/12/13 03:22:04;;;;;;;27.77;13.20;;;-3.70;86.40;;;;;;5051709;28;20492;-60
2022/12/13 03:24:31;;;;;;;25.27;12.07;;;-3.70;86.30;;;;;;5052133;28;20450;-60
2022/12/13 03:26:58;;;;;;;25.40;12.50;;;-3.70;84.40;;;;;;5051642;28;20621;-60
2022/12/13 03:29:25;;;;;;;26.30;12.90;;;-3.70;84.10;;;;;;5052114;28;20454;-60
2022/12/13 03:31:51;;;;;;;25.70;13.17;;;-3.70;83.60;;;;;;5051970;28;20865;-59
2022/12/13 03:34:19;;;;;;;22.83;11.83;;;-3.80;82.60;;;;;;5051997;28;20861;-60
2022/12/13 03:36:46;;;;;;;28.10;13.03;;;-3.80;82.50;;;;;;5052920;28;20900;-60
2022/12/13 03:39:13;;;;;;;27.23;13.30;;;-3.80;82.50;;;;;;5063251;28;20821;-60
2022/12/13 03:41:39;;;;;;;23.70;11.73;;;-3.80;81.20;;;;;;5071659;28;20486;-59
2022/12/13 03:44:08;;;;;;;23.17;13.07;;;-3.70;79.50;;;;;;5071992;28;20444;-59
2022/12/13 03:46:35;;;;;;;25.20;12.70;;;-3.80;77.90;;;;;;5071433;28;20985;-60
2022/12/13 03:49:01;;;;;;;20.87;11.87;;;-3.80;76.60;;;;;;5071995;28;20453;-59
2022/12/13 03:51:29;;;;;;;24.13;11.17;;;-3.80;73.00;;;;;;5071859;28;20437;-59
2022/12/13 03:53:56;;;;;;;25.33;12.97;;;-3.80;70.00;;;;;;5071785;28;20448;-60
2022/12/13 03:56:22;;;;;;;22.90;12.33;;;-3.80;69.10;;;;;;5071540;28;20536;-60
2022/12/13 03:58:49;;;;;;;24.53;11.97;;;-3.80;67.10;;;;;;5071858;28;20454;-60
2022/12/13 04:01:16;;;;;;;21.53;10.97;;;-3.80;65.20;;;;;;5071603;28;20489;-64
2022/12/13 04:03:45;;;;;;;22.67;11.23;;;-3.90;65.20;;;;;;5071766;28;20502;-60
2022/12/13 04:06:13;;;;;;;26.37;11.70;;;-3.90;64.50;;;;;;5071271;28;20453;-60
2022/12/13 04:08:41;;;;;;;22.63;11.77;;;-3.90;63.70;;;;;;5062472;28;21016;-60
2022/12/13 04:13:48;;;;;;;21.57;11.60;;;-3.80;58.80;;;;;;5053713;28;20483;-58
2022/12/13 04:16:15;;;;;;;27.77;12.60;;;-3.90;56.70;;;;;;5055221;28;20458;-59
2022/12/13 04:18:42;;;;;;;26.00;12.97;;;-3.90;55.90;;;;;;5055394;28;20445;-60
2022/12/13 04:21:08;;;;;;;27.23;11.33;;;-3.90;53.70;;;;;;5055135;28;20493;-59
2022/12/13 04:23:35;;;;;;;25.57;12.00;;;-3.90;52.50;;;;;;5054806;28;20507;-58
2022/12/13 04:26:03;;;;;;;23.30;12.60;;;-3.90;51.40;;;;;;5055759;28;20456;-59
2022/12/13 04:28:30;;;;;;;24.50;12.10;;;-3.90;52.10;;;;;;5055332;28;20450;-57
2022/12/13 04:30:57;;;;;;;24.97;12.80;;;-3.90;50.10;;;;;;5055143;28;20957;-59
2022/12/13 04:33:24;;;;;;;25.60;11.63;;;-3.90;48.20;;;;;;5054978;28;20886;-60
2022/12/13 04:35:51;;;;;;;24.80;10.93;;;-3.90;46.80;;;;;;5055230;28;20459;-59
2022/12/13 04:38:18;;;;;;;22.63;11.70;;;-3.90;45.80;;;;;;5063259;28;20470;-57
2022/12/13 04:40:44;;;;;;;19.17;10.23;;;-3.90;45.30;;;;;;5072885;28;20485;-59
2022/12/13 04:43:12;;;;;;;23.57;10.73;;;-3.90;42.70;;;;;;5074639;28;20453;-59
2022/12/13 04:45:39;;;;;;;24.57;10.50;;;-3.90;40.40;;;;;;5074834;28;20867;-57
2022/12/13 04:48:06;;;;;;;23.43;11.13;;;-3.80;38.00;;;;;;5074374;28;20480;-60
2022/12/13 04:50:33;;;;;;;21.07;10.13;;;-3.80;34.50;;;;;;5074790;28;20474;-59
2022/12/13 04:53:00;;;;;;;19.37;10.30;;;-3.80;32.70;;;;;;5074766;28;20448;-60
2022/12/13 04:55:27;;;;;;;26.13;12.70;;;-3.90;30.60;;;;;;5074772;28;20856;-60
2022/12/13 04:57:53;;;;;;;22.53;11.33;;;-3.90;29.10;;;;;;5074347;28;20477;-59
2022/12/13 05:00:22;;;;;;;19.80;10.67;;;-3.90;28.90;;;;;;5074502;28;20464;-60
2022/12/13 05:02:48;;;;;;;24.50;10.97;;;-3.90;28.80;;;;;;5074435;28;20456;-60
2022/12/13 05:05:15;;;;;;;20.53;10.63;;;-4.00;28.40;;;;;;5074730;28;20535;-60
2022/12/13 05:07:42;;;;;;;20.10;10.30;;;-4.00;27.20;;;;;;5065708;28;20470;-60
2022/12/13 05:10:09;;;;;;;18.67;10.30;;;-3.90;25.90;;;;;;5061379;28;20516;-60
2022/12/13 05:12:36;;;;;;;23.53;12.13;;;-3.90;25.10;;;;;;5054492;28;20815;-59
2022/12/13 05:15:03;;;;;;;22.30;10.40;;;-3.90;24.10;;;;;;5054171;28;20488;-60
2022/12/13 05:17:31;;;;;;;19.93;10.63;;;-3.90;21.20;;;;;;5053925;28;20468;-60
2022/12/13 05:19:58;;;;;;;19.23;10.37;;;-4.00;21.40;;;;;;5054429;28;20533;-60
2022/12/13 05:22:24;;;;;;;24.47;11.77;;;-4.00;22.50;;;;;;5054165;28;20551;-60
2022/12/13 05:24:51;;;;;;;21.83;11.07;;;-4.10;22.50;;;;;;5053235;28;20454;-60
2022/12/13 05:27:18;;;;;;;24.37;11.67;;;-4.10;24.00;;;;;;5053963;28;20478;-59
2022/12/13 05:29:45;;;;;;;21.33;10.17;;;-4.10;24.70;;;;;;5053688;28;21011;-60
2022/12/13 05:32:12;;;;;;;20.03;11.73;;;-4.10;25.00;;;;;;5054325;28;20445;-60
2022/12/13 05:34:40;;;;;;;19.83;10.37;;;-4.10;24.60;;;;;;5054022;28;20453;-60
2022/12/13 05:37:06;;;;;;;21.80;10.97;;;-4.10;23.00;;;;;;5058558;28;20468;-60
2022/12/13 05:39:33;;;;;;;21.13;10.53;;;-4.10;22.50;;;;;;5065484;28;20903;-59
2022/12/13 05:42:00;;;;;;;21.57;10.20;;;-4.10;23.20;;;;;;5074037;28;20928;-60
2022/12/13 05:44:27;;;;;;;23.27;10.53;;;-4.10;22.30;;;;;;5073547;28;20444;-60
2022/12/13 05:46:53;;;;;;;18.07;10.00;;;-4.10;21.50;;;;;;5073712;28;20548;-60
2022/12/13 05:49:20;;;;;;;20.63;11.30;;;-4.10;20.50;;;;;;5073737;28;20456;-60
2022/12/13 05:51:48;;;;;;;18.47;9.67;;;-4.20;19.60;;;;;;5073792;28;20444;-60
2022/12/13 05:54:15;;;;;;;21.73;11.00;;;-4.20;19.80;;;;;;5073750;28;20453;-59
2022/12/13 05:56:41;;;;;;;20.87;11.30;;;-4.10;19.10;;;;;;5073314;28;20472;-60
2022/12/13 05:59:08;;;;;;;22.60;11.00;;;-4.10;17.60;;;;;;5073364;28;20456;-60
2022/12/13 06:01:35;;;;;;;21.43;10.80;;;-4.10;15.60;;;;;;5073575;28;20830;-60
2022/12/13 06:04:01;;;;;;;21.23;11.50;;;-4.10;14.70;;;;;;5072951;28;20453;-60
2022/12/13 06:06:28;;;;;;;19.40;10.63;;;-4.20;14.30;;;;;;5073209;28;20474;-60
2022/12/13 06:08:58;;;;;;;22.57;11.37;;;-4.20;14.90;;;;;;5062124;28;20449;-60
2022/12/13 06:11:24;;;;;;;24.70;10.97;;;-4.10;13.80;;;;;;5053156;28;20450;-60
2022/12/13 06:13:52;;;;;;;19.57;11.03;;;-4.20;12.60;;;;;;5053497;28;20449;-60
2022/12/13 06:16:18;;;;;;;19.40;10.17;;;-4.20;13.40;;;;;;5052997;28;20585;-60
2022/12/13 06:18:45;;;;;;;23.20;10.17;;;-4.20;13.60;;;;;;5052029;28;20450;-60
2022/12/13 06:21:12;;;;;;;16.73;9.90;;;-4.30;13.70;;;;;;5053022;28;20895;-60
2022/12/13 06:23:38;;;;;;;19.60;10.90;;;-4.30;14.50;;;;;;5053009;28;20534;-60
2022/12/13 06:26:07;;;;;;;19.93;10.50;;;-4.40;15.50;;;;;;5052565;28;20514;-60
2022/12/13 06:28:34;;;;;;;22.80;11.93;;;-4.40;17.70;;;;;;5052863;28;21006;-60
2022/12/13 06:31:01;;;;;;;20.67;10.37;;;-4.40;20.20;;;;;;5052875;28;20446;-60
2022/12/13 06:33:28;;;;;;;21.47;11.40;;;-4.40;21.90;;;;;;5052931;28;20457;-60
2022/12/13 06:35:56;;;;;;;16.57;10.00;;;-4.40;21.80;;;;;;5052437;28;20884;-59
2022/12/13 06:38:23;;;;;;;21.50;11.53;;;-4.40;21.60;;;;;;5061033;28;20441;-60
2022/12/13 06:40:50;;;;;;;23.33;11.07;;;-4.40;22.00;;;;;;5070963;28;20447;-60
2022/12/13 06:43:18;;;;;;;21.33;12.00;;;-4.40;21.90;;;;;;5072755;28;20478;-60
2022/12/13 06:45:45;;;;;;;20.30;10.87;;;-4.40;21.30;;;;;;5072297;28;20454;-60
2022/12/13 06:48:12;;;;;;;21.77;10.63;;;-4.40;19.90;;;;;;5072429;28;21231;-60
2022/12/13 06:50:38;;;;;;;21.33;10.67;;;-4.40;19.40;;;;;;5072260;28;20448;-60
2022/12/13 06:53:05;;;;;;;19.90;10.80;;;-4.30;17.90;;;;;;5072455;28;20441;-60
2022/12/13 06:55:32;;;;;;;18.83;10.13;;;-4.30;14.30;;;;;;5072395;28;20485;-59
2022/12/13 06:57:58;;;;;;;17.13;9.63;;;-4.20;10.10;;;;;;5072093;28;20886;-60
2022/12/13 07:00:27;;;;;;;24.03;11.97;;;-4.20;7.40;;;;;;5072394;28;20446;-60
2022/12/13 07:02:54;;;;;;;23.90;10.97;;;-4.30;5.40;;;;;;5072247;28;20492;-60
2022/12/13 07:05:20;;;;;;;19.23;10.57;;;-4.40;5.60;;;;;;5072237;28;20451;-60
2022/12/13 07:07:47;;;;;;;20.23;10.27;;;-4.40;7.30;;;;;;5063493;28;20539;-60
2022/12/13 07:10:14;;;;;;;18.07;9.07;;;-4.30;6.60;;;;;;5058684;28;20808;-60
2022/12/13 07:12:40;;;;;;;21.97;11.27;;;-4.40;5.50;;;;;;5052151;28;20455;-59
2022/12/13 07:15:09;;;;;;;22.00;11.77;;;-4.40;8.60;;;;;;5052065;28;20511;-60
2022/12/13 07:17:37;;;;;;;20.70;10.53;;;-4.30;10.70;;;;;;5051750;28;20820;-60
2022/12/13 07:20:08;;;;;;;18.27;10.20;;;-4.20;6.20;;;;;;5051969;28;20460;-59
2022/12/13 07:22:34;;;;;;;16.77;8.90;;;-4.20;2.10;;;;;;5052186;28;20491;-60
2022/12/13 07:25:02;;;;;;;20.37;11.40;;;-4.20;1.00;;;;;;5052034;28;20460;-60
2022/12/13 07:27:28;;;;;;;20.70;10.50;;;-4.20;1.00;;;;;;5051653;28;20481;-60
2022/12/13 07:29:56;;;;;;;18.90;10.23;;;-4.30;1.00;;;;;;5052046;28;20524;-60
2022/12/13 07:32:23;;;;;;;19.83;10.33;;;-4.30;1.00;;;;;;5052104;28;20453;-60
2022/12/13 07:34:51;;;;;;;21.60;10.30;;;-4.20;1.00;;;;;;5051711;28;20872;-61
2022/12/13 07:37:18;;;;;;;18.57;9.47;;;-4.20;1.00;;;;;;5057138;28;20467;-60
2022/12/13 07:39:45;;;;;;;19.40;9.90;;;-4.30;1.00;;;;;;5063584;28;20447;-60
2022/12/13 07:42:11;;;;;;;20.07;9.77;;;-4.30;1.00;;;;;;5071852;28;20482;-60
2022/12/13 07:44:38;;;;;;;18.10;8.90;;;-4.20;1.00;;;;;;5071849;28;20452;-60
2022/12/13 07:47:05;;;;;;;18.83;9.47;;;-4.20;1.00;;;;;;5071258;28;20471;-60
2022/12/13 07:49:31;;;;;;;22.60;10.80;;;-4.20;1.00;;;;;;5071777;28;20851;-59
2022/12/13 07:51:59;;;;;;;21.27;9.97;;;-4.20;1.00;;;;;;5071697;28;20950;-60
2022/12/13 07:54:26;;;;;;;21.43;11.07;;;-4.20;1.00;;;;;;5071823;28;20455;-60
2022/12/13 07:56:53;;;;;;;22.50;11.50;;;-4.40;1.00;;;;;;5072368;28;20468;-60
2022/12/13 07:59:19;;;;;;;25.03;10.87;;;-4.50;1.00;;;;;;5072847;28;20712;-60
2022/12/13 08:01:46;;;;;;;23.87;12.20;;;-4.60;7.00;;;;;;5072655;28;20485;-59
2022/12/13 08:04:13;;;;;;;23.73;11.40;;;-4.70;11.00;;;;;;5072035;28;20455;-59
2022/12/13 08:06:39;;;;;;;21.40;10.90;;;-4.70;16.40;;;;;;5070714;28;20525;-60
2022/12/13 08:09:07;;;;;;;21.97;11.33;;;-4.60;18.50;;;;;;5059867;28;20497;-60
2022/12/13 08:11:34;;;;;;;23.23;10.93;;;-4.50;19.10;;;;;;5051686;28;20459;-58
2022/12/13 08:14:01;;;;;;;22.63;10.53;;;-4.50;23.60;;;;;;5051565;28;20453;-60
2022/12/13 08:16:27;;;;;;;20.90;11.77;;;-4.40;25.70;;;;;;5051155;28;20498;-59
2022/12/13 08:18:54;;;;;;;19.87;10.70;;;-4.30;25.70;;;;;;5051641;28;20449;-60
2022/12/13 08:21:21;;;;;;;20.47;10.53;;;-4.20;24.10;;;;;;5051353;28;20450;-60
2022/12/13 08:23:47;;;;;;;21.70;11.43;;;-4.20;20.70;;;;;;5051352;28;20448;-60
2022/12/13 08:26:15;;;;;;;23.30;12.33;;;-4.10;15.10;;;;;;5051002;28;20505;-61
2022/12/13 08:28:42;;;;;;;20.77;11.30;;;-4.00;12.40;;;;;;5051173;28;20457;-60
2022/12/13 08:31:11;;;;;;;20.37;11.17;;;-4.00;10.50;;;;;;5051207;28;20450;-60
2022/12/13 08:33:39;;;;;;;22.50;11.00;;;-4.00;3.60;;;;;;5051579;28;20529;-60
2022/12/13 08:36:09;;;;;;;21.90;11.30;;;-3.90;2.50;;;;;;5051200;28;20965;-59
2022/12/13 08:38:36;;;;;;;23.30;11.77;;;-3.80;1.00;;;;;;5059142;28;20486;-61
2022/12/13 08:41:03;;;;;;;26.33;12.60;;;-3.80;1.00;;;;;;5071201;28;20444;-61
2022/12/13 08:43:31;;;;;;;24.90;11.17;;;-3.80;1.00;;;;;;5070961;28;20489;-60
2022/12/13 08:45:58;;;;;;;19.53;10.83;;;-3.70;1.00;;;;;;5062520;28;20445;-59
2022/12/13 08:48:24;;;;;;;21.33;10.50;;;-3.60;1.00;;;;;;5062664;28;20473;-61
2022/12/13 08:50:52;;;;;;;19.80;10.93;;;-3.50;1.00;;;;;;5054450;28;20452;-60
2022/12/13 08:53:19;;;;;;;20.00;10.90;;;-3.40;1.00;;;;;;5056739;28;20448;-61
2022/12/13 08:55:45;;;;;;;20.20;11.30;;;-3.40;1.00;;;;;;5051067;28;20448;-61
2022/12/13 08:58:13;;;;;;;22.87;11.23;;;-3.40;1.00;;;;;;5050793;28;20483;-60
2022/12/13 09:00:41;;;;;;;20.87;10.87;;;-3.30;1.00;;;;;;5053339;28;20458;-60
2022/12/13 09:03:08;;;;;;;22.80;11.30;;;-3.10;1.00;;;;;;5054531;28;20495;-59
2022/12/13 09:05:35;;;;;;;17.67;9.83;;;-3.00;1.00;;;;;;5054524;28;20455;-61
2022/12/13 09:08:03;;;;;;;19.00;10.20;;;-2.90;1.00;;;;;;5065949;28;20467;-57
2022/12/13 09:10:30;;;;;;;22.93;10.50;;;-2.80;1.00;;;;;;5058729;28;20531;-58
2022/12/13 09:12:58;;;;;;;20.50;9.80;;;-2.60;1.00;;;;;;5054354;28;20460;-60
2022/12/13 09:15:25;;;;;;;20.23;10.00;;;-2.50;1.00;;;;;;5054473;28;20506;-60
2022/12/13 09:17:53;;;;;;;17.53;9.17;;;-2.40;1.00;;;;;;5053762;28;20522;-60
2022/12/13 09:20:20;;;;;;;21.50;9.30;;;-2.40;1.00;;;;;;5054366;28;20443;-59
2022/12/13 09:22:47;;;;;;;22.57;9.20;;;-2.30;1.00;;;;;;5054184;28;20538;-60
2022/12/13 09:25:15;;;;;;;16.17;9.13;;;-2.20;1.00;;;;;;5053862;28;20459;-59
2022/12/13 09:27:41;;;;;;;10.97;5.83;;;-2.10;1.00;;;;;;5054079;28;20894;-60
2022/12/13 09:30:11;;;;;;;19.83;9.90;;;-2.00;99.90;;;;;;5054681;28;20455;-60
2022/12/13 09:32:38;;;;;;;20.43;9.70;;;-2.00;99.90;;;;;;5054418;28;20860;-59
2022/12/13 09:35:07;;;;;;;22.50;9.70;;;-1.90;99.90;;;;;;5054004;28;20946;-60
2022/12/13 09:37:34;;;;;;;19.53;9.97;;;-1.90;99.90;;;;;;5061383;28;20467;-60
2022/12/13 09:40:01;;;;;;;14.83;8.00;;;-1.80;99.90;;;;;;5065587;28;20455;-60
2022/12/13 09:42:30;;;;;;;19.97;8.70;;;-1.70;99.90;;;;;;5073941;28;20483;-60
2022/12/13 09:45:00;;;;;;;20.13;9.37;;;-1.70;99.90;;;;;;5073717;28;20454;-59
2022/12/13 09:47:32;;;;;;;18.73;9.17;;;-1.60;99.90;;;;;;5073537;28;20992;-60
2022/12/13 09:50:00;;;;;;;15.23;8.20;;;-1.60;99.90;;;;;;5073882;28;20444;-59
2022/12/13 09:52:35;;;;;;;16.20;8.33;;;-1.50;99.90;;;;;;5073677;28;20997;-60
2022/12/13 09:55:02;;;;;;;15.60;7.47;;;-1.40;99.90;;;;;;5073726;28;20508;-60
2022/12/13 09:57:31;;;;;;;15.63;7.67;;;-1.40;99.90;;;;;;5073406;28;20877;-59
2022/12/13 09:59:58;;;;;;;18.10;7.97;;;-1.30;3.10;;;;;;5073432;28;20942;-60
2022/12/13 10:02:28;;;;;;;15.83;8.00;;;-1.30;1.00;;;;;;5072997;28;20486;-60
2022/12/13 10:04:57;;;;;;;19.10;9.57;;;-1.30;28.80;;;;;;5072800;28;20929;-60
2022/12/13 10:07:25;;;;;;;15.33;7.43;;;-1.20;1.00;;;;;;5066558;28;20464;-60
2022/12/13 10:10:01;;;;;;;16.07;7.93;;;-1.30;1.00;;;;;;5061379;28;20448;-59
2022/12/13 10:12:29;;;;;;;16.47;8.70;;;-1.20;1.00;;;;;;5052946;28;20451;-60
2022/12/13 10:15:00;;;;;;;14.43;7.57;;;-1.10;1.00;;;;;;5053073;28;20452;-59
2022/12/13 10:17:34;;;;;;;14.63;7.50;;;-1.10;1.00;;;;;;5052540;28;20526;-59
2022/12/13 10:20:01;;;;;;;14.37;7.43;;;-1.10;15.30;;;;;;5053110;28;20939;-60
2022/12/13 10:22:27;;;;;;;14.93;7.57;;;-1.10;31.10;;;;;;5053027;28;20484;-60
2022/12/13 10:24:59;;;;;;;12.57;7.60;;;-1.00;1.00;;;;;;5053006;28;20452;-59
2022/12/13 10:27:28;;;;;;;14.57;8.10;;;-0.90;99.90;;;;;;5052738;28;20476;-59
2022/12/13 10:29:57;;;;;;;15.37;7.67;;;-0.90;1.00;;;;;;5052815;28;20494;-59
2022/12/13 10:32:24;;;;;;;12.53;7.43;;;-0.80;94.20;;;;;;5052818;28;20440;-60
2022/12/13 10:34:54;;;;;;;17.98;10.25;;;-0.80;1.00;;;;;;5051661;28;20420;-60
2022/12/13 10:37:28;;;;;;;17.38;10.95;;;-0.70;97.40;;;;;;5057064;28;20415;-60
2022/12/13 10:39:56;;;;;;;17.55;11.23;;;-0.50;32.10;;;;;;5063092;28;20416;-60
2022/12/13 10:42:24;;;;;;;16.45;10.38;;;-0.40;99.90;;;;;;5071330;28;20508;-60
2022/12/13 10:45:10;;;;;;;18.95;11.63;;;-0.40;99.90;;;;;;5071253;28;20407;-60
2022/12/13 10:47:36;;;;;;;16.08;10.48;;;-0.40;1.00;;;;;;5071103;28;20494;-60
2022/12/13 10:50:04;;;;;;;15.65;10.18;;;-0.50;99.90;;;;;;5071276;28;20829;-60
2022/12/13 10:52:33;;;;;;;17.50;10.80;;;-0.40;1.00;;;;;;5071032;28;20403;-59
2022/12/13 10:55:04;;;;;;;17.65;10.55;;;-0.20;99.90;;;;;;5071415;28;20403;-60
2022/12/13 10:57:32;;;;;;;16.58;10.52;;;-0.30;99.90;;;;;;5070630;28;20412;-59
2022/12/13 10:59:59;;;;;;;16.63;10.60;;;-0.20;1.00;;;;;;5070945;28;20415;-60
2022/12/13 11:02:30;;;;;;;16.13;10.27;;;-0.10;54.60;;;;;;5071086;28;20474;-60
2022/12/13 11:04:58;;;;;;;16.50;11.15;;;0.00;1.00;;;;;;5070815;28;20993;-60
2022/12/13 11:07:28;;;;;;;19.73;11.23;;;0.00;15.20;;;;;;5063601;28;20801;-60
2022/12/13 11:09:55;;;;;;;16.48;10.48;;;-0.40;1.00;;;;;;5059246;28;20426;-60
2022/12/13 11:12:26;;;;;;;14.70;9.43;;;-0.30;99.90;;;;;;5050846;28;20459;-60
2022/12/13 11:14:56;;;;;;;16.00;9.83;;;-0.40;1.00;;;;;;5050865;28;20571;-59
2022/12/13 11:17:26;;;;;;;14.25;10.00;;;-0.10;1.00;;;;;;5050411;28;20474;-60
2022/12/13 11:19:54;;;;;;;16.02;10.35;;;-0.20;99.90;;;;;;5050886;28;21269;-59
2022/12/13 11:22:24;;;;;;;15.68;10.20;;;-0.10;99.90;;;;;;5049810;28;20418;-60
2022/12/13 11:24:55;;;;;;;14.55;9.35;;;-0.10;1.00;;;;;;5050495;28;20945;-60
2022/12/13 11:27:44;;;;;;;15.35;10.27;;;0.00;38.30;;;;;;5050545;28;20413;-60
2022/12/13 11:30:16;;;;;;;18.83;11.02;;;-0.40;1.00;;;;;;5050408;28;20444;-60
2022/12/13 11:32:59;;;;;;;20.27;11.85;;;-0.20;99.90;;;;;;5050702;28;20421;-60
2022/12/13 11:35:30;;;;;;;19.13;11.48;;;-0.10;1.00;;;;;;5050366;28;20416;-60
2022/12/13 11:38:07;;;;;;;17.42;11.45;;;-0.10;99.90;;;;;;5058422;28;20417;-58
2022/12/13 11:40:41;;;;;;;16.92;10.88;;;0.20;99.90;;;;;;5066280;28;20778;-60
2022/12/13 11:43:21;;;;;;;16.88;10.35;;;0.10;99.90;;;;;;5070683;28;20432;-60
2022/12/13 11:45:54;;;;;;;14.70;9.43;;;0.10;99.90;;;;;;5070471;28;20424;-60
2022/12/13 11:48:29;;;;;;;16.90;10.73;;;0.10;99.90;;;;;;5071033;28;20419;-59
2022/12/13 11:50:57;;;;;;;14.38;9.10;;;0.30;99.90;;;;;;5070504;28;20416;-59
2022/12/13 11:53:30;;;;;;;16.25;10.35;;;0.40;99.90;;;;;;5070668;28;20407;-59
2022/12/13 11:56:04;;;;;;;14.75;9.35;;;0.20;99.90;;;;;;5070247;28;20411;-58
2022/12/13 11:58:40;;;;;;;17.50;10.50;;;0.40;1.00;;;;;;5070437;28;20433;-59
2022/12/13 12:01:10;;;;;;;15.37;10.30;;;0.50;99.90;;;;;;5070232;28;20477;-60
2022/12/13 12:03:43;;;;;;;17.83;11.43;;;0.60;1.00;;;;;;5069946;28;20439;-60
2022/12/13 12:06:15;;;;;;;17.42;11.13;;;0.80;99.90;;;;;;5069917;28;20476;-59
2022/12/13 12:08:45;;;;;;;16.98;11.50;;;1.00;99.90;;;;;;5061239;28;20836;-60
2022/12/13 12:11:19;;;;;;;19.30;12.73;;;0.70;1.00;;;;;;5050309;28;20456;-59
2022/12/13 12:13:51;;;;;;;18.58;12.68;;;0.30;99.90;;;;;;5050183;28;20888;-60
2022/12/13 12:16:28;;;;;;;30.77;19.50;;;0.20;1.00;;;;;;5049943;28;20451;-59
2022/12/13 12:18:55;;;;;;;17.90;12.23;;;0.00;99.90;;;;;;5050246;28;20416;-60
2022/12/13 12:21:34;;;;;;;18.30;11.70;;;-0.20;99.90;;;;;;5050088;28;20417;-59
2022/12/13 12:24:12;;;;;;;18.33;11.88;;;0.00;99.90;;;;;;5050146;28;20451;-60
2022/12/13 12:26:47;;;;;;;19.40;12.95;;;-0.10;99.90;;;;;;5049620;28;20424;-60
2022/12/13 12:29:43;;;;;;;20.10;12.70;;;0.00;99.90;;;;;;5050167;28;20414;-60
2022/12/13 12:32:20;;;;;;;16.80;11.48;;;0.10;1.00;;;;;;5050098;28;20408;-59
2022/12/13 12:34:56;;;;;;;18.40;11.07;;;0.00;1.00;;;;;;5052117;28;20459;-59
2022/12/13 12:37:31;;;;;;;16.13;11.05;;;0.30;1.00;;;;;;5060007;28;20412;-59
2022/12/13 12:40:16;;;;;;;17.98;11.25;;;0.50;99.90;;;;;;5065337;28;20874;-59
2022/12/13 12:42:55;;;;;;;17.33;11.15;;;0.20;99.90;;;;;;5073749;28;20415;-59
2022/12/13 12:45:44;;;;;;;18.95;11.82;;;0.20;1.00;;;;;;5074035;28;20415;-59
2022/12/13 12:48:27;;;;;;;16.17;11.00;;;0.30;99.90;;;;;;5073411;28;20879;-60